Participated 6 times
Between 1982 and 1988
Jan Wynants, Belgium
Tour de France 2026 starts from Barcelona, Spain in

Stats and Facts from
Tour de France.

2026   2025   2024   2023  2022  2021  2020  2019   2018  2017   2016   2015  2014  2013   2012   2011  2010   2009   2008   2007   2006   2005   2004   2003   2002   2001   2000   1999   1998   1997  1996   1995   1994   1993   1992  1991   1990   1989   1988   1987   1986   1985   1984   1983  1982  1981   1980   1979  1978  1977   1976  1975  1974  1973   1972   1971   1970  1969   1968   1967   1966   1965  1964  1963   1962   1961   1960   1959   1958   1957  1956   1955   1954   1953   1952  1951  1950  1949   1948  1947  1939   1938   1937   1936   1935   1934   1933  1932   1931   1930  1929   1928   1927   1926  1925  1924  1923   1922   1921   1920   1919  1914   1913   1912   1911   1910  1909   1908   1907   1906  1905  1904   1903 

Tourstats
Sitemap

After stage 21 - 2025:
 16451 starters.
  5464 different riders.
  689 teams.
  2398 stages.
  470 restdays.
  466506.50 km.
  5925 abandoned riders.

Click map for 2012 route.
Facts from Tour de France 2012
  |   Stages.  |   Stage winners.  |   Days in jerseys.  |   Teams.  |   All riders.  |   All riders by age.  |   All riders from.  |  

  |   Rookies.  |   Withdrawls.  |   Average speed.  |   GC.  |   Polka  |   Green  |   White  |   Summits. (In tour)  |   Miscellaneous.  |  

Stage 11 on July 12th. 2012
Pick a stage:  Pro  1  2  3  4  5  6  7  8  9  10  11  12  13  14  15  16  17  18  19  20  

After stage 11:    Bradley Wiggins    Fredrik Kessiakoff    Peter Sagan    Tejay Van Garderen  
  AlbertvilleLa Toussuire-Les-Sybelles | Dist: 148.00km. | Winner: Pierre Rolland

Podium
HC  Col de la Madeleine Peter Velitsafter40.00 km.

HC  Col de la Croix de Fer Fredrik Kessiakoffafter93.00 km.

2  Col du Mollard Pierre Rollandafter113.00 km.

1  La Toussuire Pierre Rollandafter148.00 km.


Average speed for all riders in stage:  28,787 km./hr.

1
 Pierre Rolland  Europcar04h 43' 54"=31,279  km/h

2
 Thibaut Pinot  FDJ – Big Mat04h 44' 49"+  00:00:55 =31,178  km/h

3
 Chris Froome  Sky Procycling04h 44' 49"+  00:00:55 =31,178  km/h

4  Jurgen Van Den Broeck  Lotto-Belisol04h 44' 51"+  00:00:57 =31,174  km/h

5  Vincenzo Nibali  Liquigas-Cannondale04h 44' 51"+  00:00:57 =31,174  km/h

6  Bradley Wiggins  Sky Procycling04h 44' 51"+  00:00:57 =31,174  km/h

7  Chris Anker Sørensen  Saxo Bank-Tinkoff Bank04h 45' 02"+  00:01:08 =31,154  km/h

8  Janez Brajkovič  Astana Pro Team04h 45' 52"+  00:01:58 =31,063  km/h

9  Vasil Kiryienka  Movistar04h 46' 07"+  00:02:13 =31,036  km/h

10  Fränk Schleck  Radioshack–Nissan04h 46' 17"+  00:02:23 =31,018  km/h

11  Cadel Evans  BMC04h 46' 17"+  00:02:23 =31,018  km/h

12  Tejay Van Garderen  BMC04h 46' 17"+  00:02:23 =31,018  km/h

13  Christopher Horner  Radioshack–Nissan04h 47' 47"+  00:03:53 =30,857  km/h

14  Andréas  Klöden  Radioshack–Nissan04h 47' 47"+  00:03:53 =30,857  km/h

15  Jérôme Coppel  Saur-Sojasun04h 47' 47"+  00:03:53 =30,857  km/h

16  Haimar  Zubeldía  Radioshack–Nissan04h 47' 47"+  00:03:53 =30,857  km/h

17  Juan José Cobo  Movistar04h 47' 47"+  00:03:53 =30,857  km/h

18  Robert Kišerlovski  Astana Pro Team04h 47' 47"+  00:03:53 =30,857  km/h

19  Nicolas Roche  AG2R La Mondiale04h 50' 11"+  00:06:17 =30,601  km/h

20  Laurens Ten Dam  Rabobank04h 51' 21"+  00:07:27 =30,479  km/h

21  Peter Velits  Omega Pharma – Quick Step04h 51' 56"+  00:08:02 =30,418  km/h

22  Alejandro Valverde  Movistar04h 52' 15"+  00:08:21 =30,385  km/h

23  Blel Kadri  AG2R La Mondiale04h 54' 15"+  00:10:21 =30,178  km/h

24  Alexandre Vinokourov  Astana Pro Team04h 54' 15"+  00:10:21 =30,178  km/h

25  Dominik Nerz  Liquigas-Cannondale04h 55' 13"+  00:11:19 =30,080  km/h

26  Egoi Martínez  Euskaltel-Euskadi04h 55' 58"+  00:12:04 =30,003  km/h

27  Steven Kruijswijk  Rabobank04h 55' 58"+  00:12:04 =30,003  km/h

28  Mikaël Cherel  AG2R La Mondiale04h 56' 24"+  00:12:30 =29,960  km/h

29  Sandy Casar  FDJ – Big Mat04h 57' 00"+  00:13:06 =29,899  km/h

30  Fredrik Kessiakoff  Astana Pro Team04h 57' 00"+  00:13:06 =29,899  km/h

31  Rafael Valls Ferri  Vacansoleil-DCM04h 58' 07"+  00:14:13 =29,787  km/h

32  Rui Costa  Movistar04h 58' 07"+  00:14:13 =29,787  km/h

33  Dan Martin  Garmin-Sharp-Barracuda04h 58' 09"+  00:14:15 =29,784  km/h

34  Pieter Weening  Orica-GreenEDGE04h 58' 09"+  00:14:15 =29,784  km/h

35  Maxime Monfort  Radioshack–Nissan04h 58' 09"+  00:14:15 =29,784  km/h

36  Michele Scarponi  Lampre-ISD04h 58' 09"+  00:14:15 =29,784  km/h

37  Jelle Vanendert  Lotto-Belisol04h 58' 09"+  00:14:15 =29,784  km/h

38  Kevin De Weert  Omega Pharma – Quick Step04h 58' 09"+  00:14:15 =29,784  km/h

39  Cyril Gautier  Europcar04h 58' 09"+  00:14:15 =29,784  km/h

40  Yury  Trofimov  Katusha04h 58' 09"+  00:14:15 =29,784  km/h

41  Denis Menchov  Katusha04h 58' 09"+  00:14:15 =29,784  km/h

42  Jérémy Roy  FDJ – Big Mat04h 58' 09"+  00:14:15 =29,784  km/h

43  Eduard Vorganov  Katusha04h 58' 09"+  00:14:15 =29,784  km/h

44  Fabrice Jeandesboz  Saur-Sojasun04h 58' 37"+  00:14:43 =29,737  km/h

45  Giampaolo Caruso  Katusha04h 59' 22"+  00:15:28 =29,663  km/h

46  Christian Vandevelde  Garmin-Sharp-Barracuda04h 59' 44"+  00:15:50 =29,626  km/h

47  Richie Porte  Sky Procycling04h 59' 44"+  00:15:50 =29,626  km/h

48  Michael Rogers  Sky Procycling05h 02' 25"+  00:18:31 =29,363  km/h

49  Ivan Basso  Liquigas-Cannondale05h 02' 25"+  00:18:31 =29,363  km/h

50  Amaël Moinard  BMC05h 02' 25"+  00:18:31 =29,363  km/h

51  George Hincapie  BMC05h 02' 25"+  00:18:31 =29,363  km/h

52  Michael Schär  BMC05h 02' 25"+  00:18:31 =29,363  km/h

53  Vladimir Karpets  Movistar05h 02' 53"+  00:18:59 =29,318  km/h

54  Christophe Kern  Europcar05h 03' 34"+  00:19:40 =29,252  km/h

55  Maxime Bouet  AG2R La Mondiale05h 05' 44"+  00:21:50 =29,045  km/h

56  Johnny Hoogerland  Vacansoleil-DCM05h 06' 17"+  00:22:23 =28,993  km/h

57  Jean-Christophe Peraud  AG2R La Mondiale05h 07' 38"+  00:23:44 =28,866  km/h

58  David Millar  Garmin-Sharp-Barracuda05h 07' 42"+  00:23:48 =28,859  km/h

59  Levi Leipheimer  Omega Pharma – Quick Step05h 07' 52"+  00:23:58 =28,844  km/h

60  Marco Marzano  Lampre-ISD05h 07' 52"+  00:23:58 =28,844  km/h

61  Sylwester Szmyd  Liquigas-Cannondale05h 07' 52"+  00:23:58 =28,844  km/h

62  Guillaume Levarlet  Saur-Sojasun05h 07' 52"+  00:23:58 =28,844  km/h

63  Brice Feillu  Saur-Sojasun05h 07' 52"+  00:23:58 =28,844  km/h

64  Vladimir Gusev  Katusha05h 07' 52"+  00:23:58 =28,844  km/h

65  Romain Zingle  Cofidis Le Credit En Ligne05h 07' 52"+  00:23:58 =28,844  km/h

66  Simone Stortoni  Lampre-ISD05h 09' 28"+  00:25:34 =28,695  km/h

67  Jorge Azanza  Euskaltel-Euskadi05h 09' 37"+  00:25:43 =28,681  km/h

68  Gorka Izagirre  Euskaltel-Euskadi05h 09' 37"+  00:25:43 =28,681  km/h

69  Davide Malacarne  Europcar05h 09' 42"+  00:25:48 =28,673  km/h

70  Rein Taaramäe  Cofidis Le Credit En Ligne05h 09' 42"+  00:25:48 =28,673  km/h

71  Christian Knees  Sky Procycling05h 09' 42"+  00:25:48 =28,673  km/h

72  Francis De Greef  Lotto-Belisol05h 10' 05"+  00:26:11 =28,637  km/h

73  Christophe Riblon  AG2R La Mondiale05h 11' 24"+  00:27:30 =28,516  km/h

74  Thomas  Voeckler  Europcar05h 12' 04"+  00:28:10 =28,455  km/h

75  Marco Marcato  Vacansoleil-DCM05h 13' 26"+  00:29:32 =28,331  km/h

76  Arthur Vichot  FDJ – Big Mat05h 13' 26"+  00:29:32 =28,331  km/h

77  Pierrick  Fédrigo  FDJ – Big Mat05h 13' 26"+  00:29:32 =28,331  km/h

78  Federico Canuti  Liquigas-Cannondale05h 13' 26"+  00:29:32 =28,331  km/h

79  Robert Gesink  Rabobank05h 13' 26"+  00:29:32 =28,331  km/h

80  Manuel Quinziato  BMC05h 13' 26"+  00:29:32 =28,331  km/h

81  David Moncoutié  Cofidis Le Credit En Ligne05h 13' 26"+  00:29:32 =28,331  km/h

82  Sébastien Minard  AG2R La Mondiale05h 13' 26"+  00:29:32 =28,331  km/h

83  Jérôme Pineau  Omega Pharma – Quick Step05h 13' 26"+  00:29:32 =28,331  km/h

84  Dimitiri Fofonov  Astana Pro Team05h 13' 26"+  00:29:32 =28,331  km/h

85  Rubén Plaza  Movistar05h 13' 26"+  00:29:32 =28,331  km/h

86  Pablo Urtasun  Euskaltel-Euskadi05h 13' 26"+  00:29:32 =28,331  km/h

87  Matthieu Ladagnous  FDJ – Big Mat05h 16' 19"+  00:32:25 =28,073  km/h

88  Anthony Roux  FDJ – Big Mat05h 16' 19"+  00:32:25 =28,073  km/h

89  Sérgio Paulinho  Saxo Bank-Tinkoff Bank05h 16' 19"+  00:32:25 =28,073  km/h

90  Nicki Sørensen  Saxo Bank-Tinkoff Bank05h 16' 19"+  00:32:25 =28,073  km/h

91  Stuart O'Grady  Orica-GreenEDGE05h 17' 14"+  00:33:20 =27,992  km/h

92  Michael Mørkøv  Saxo Bank-Tinkoff Bank05h 17' 14"+  00:33:20 =27,992  km/h

93  Yaroslav Popovych  Radioshack–Nissan05h 17' 14"+  00:33:20 =27,992  km/h

94  Jens Voigt  Radioshack–Nissan05h 17' 14"+  00:33:20 =27,992  km/h

95  Roy Curvers  Argos–Shimano05h 17' 14"+  00:33:20 =27,992  km/h

96  Tony Gallopin  Radioshack–Nissan05h 17' 14"+  00:33:20 =27,992  km/h

97  Matthew Goss  Orica-GreenEDGE05h 17' 14"+  00:33:20 =27,992  km/h

98  Julien Simon  Saur-Sojasun05h 17' 14"+  00:33:20 =27,992  km/h

99  Daryl Impey  Orica-GreenEDGE05h 17' 14"+  00:33:20 =27,992  km/h

100  Andriy Grivko  Astana Pro Team05h 17' 14"+  00:33:20 =27,992  km/h

101  Lars Bak  Lotto-Belisol05h 17' 14"+  00:33:20 =27,992  km/h

102  Daniel Oss  Liquigas-Cannondale05h 17' 14"+  00:33:20 =27,992  km/h

103  Koen De Kort  Argos–Shimano05h 17' 14"+  00:33:20 =27,992  km/h

104  Cédric Pineau  FDJ – Big Mat05h 17' 14"+  00:33:20 =27,992  km/h

105  Martin Velits  Omega Pharma – Quick Step05h 17' 14"+  00:33:20 =27,992  km/h

106  Kristjan Koren  Liquigas-Cannondale05h 17' 14"+  00:33:20 =27,992  km/h

107  Albert Timmer  Argos–Shimano05h 17' 14"+  00:33:20 =27,992  km/h

108  Philippe Gilbert  BMC05h 17' 14"+  00:33:20 =27,992  km/h

109  Simon Gerrans  Orica-GreenEDGE05h 17' 14"+  00:33:20 =27,992  km/h

110  Nick Nuyens  Saxo Bank-Tinkoff Bank05h 17' 14"+  00:33:20 =27,992  km/h

111  Jimmy Engoulvent  Saur-Sojasun05h 17' 14"+  00:33:20 =27,992  km/h

112  Peter Sagan  Liquigas-Cannondale05h 17' 14"+  00:33:20 =27,992  km/h

113  Jürgen Roelandts  Lotto-Belisol05h 17' 14"+  00:33:20 =27,992  km/h

114  André Greipel  Lotto-Belisol05h 17' 14"+  00:33:20 =27,992  km/h

115  Luis León Sánchez  Rabobank05h 17' 14"+  00:33:20 =27,992  km/h

116  Adam Hansen  Lotto-Belisol05h 17' 14"+  00:33:20 =27,992  km/h

117  Stephen Cummings  BMC05h 17' 14"+  00:33:20 =27,992  km/h

118  Grega Bole  Lampre-ISD05h 17' 14"+  00:33:20 =27,992  km/h

119  Yann Huguet  Argos–Shimano05h 17' 14"+  00:33:20 =27,992  km/h

120  Sébastien Hinault  AG2R La Mondiale05h 17' 14"+  00:33:20 =27,992  km/h

121  Nicolas Edet  Cofidis Le Credit En Ligne05h 17' 14"+  00:33:20 =27,992  km/h

122  Ruben Perez  Euskaltel-Euskadi05h 17' 14"+  00:33:20 =27,992  km/h

123  Karsten Kroon  Saxo Bank-Tinkoff Bank05h 17' 14"+  00:33:20 =27,992  km/h

124  Anders Lund  Saxo Bank-Tinkoff Bank05h 17' 14"+  00:33:20 =27,992  km/h

125  Edvald Boasson Hagen  Sky Procycling05h 17' 14"+  00:33:20 =27,992  km/h

126  Giovanni Bernaudeau  Europcar05h 17' 14"+  00:33:20 =27,992  km/h

127  Cyril Lemoine  Saur-Sojasun05h 17' 14"+  00:33:20 =27,992  km/h

128  David Zabriskie  Garmin-Sharp-Barracuda05h 17' 14"+  00:33:20 =27,992  km/h

129  Joan Horrach  Katusha05h 17' 14"+  00:33:20 =27,992  km/h

130  Maxim Iglinskiy  Astana Pro Team05h 17' 14"+  00:33:20 =27,992  km/h

131  Vincent Jérôme  Europcar05h 17' 14"+  00:33:20 =27,992  km/h

132  Dries Devenyns  Omega Pharma – Quick Step05h 17' 14"+  00:33:20 =27,992  km/h

133  Luca Paolini  Katusha05h 17' 14"+  00:33:20 =27,992  km/h

134  Jonathan Cantwell  Saxo Bank-Tinkoff Bank05h 17' 14"+  00:33:20 =27,992  km/h

135  Patrick Gretsch  Argos–Shimano05h 17' 14"+  00:33:20 =27,992  km/h

136  Brett Lancaster  Orica-GreenEDGE05h 17' 14"+  00:33:20 =27,992  km/h

137  Sylvain Chavanel  Omega Pharma – Quick Step05h 17' 14"+  00:33:20 =27,992  km/h

138  Johan Vansummeren  Garmin-Sharp-Barracuda05h 17' 14"+  00:33:20 =27,992  km/h

139  Gregory Henderson  Lotto-Belisol05h 17' 14"+  00:33:20 =27,992  km/h

140  Andrey Kashechkin  Astana Pro Team05h 17' 14"+  00:33:20 =27,992  km/h

141  Jean-Marc Marino  Saur-Sojasun05h 17' 14"+  00:33:20 =27,992  km/h

142  Kris Boeckmans  Vacansoleil-DCM05h 17' 14"+  00:33:20 =27,992  km/h

143  Matthieu Sprick  Argos–Shimano05h 17' 14"+  00:33:20 =27,992  km/h

144  Julien Fouchard  Cofidis Le Credit En Ligne05h 17' 14"+  00:33:20 =27,992  km/h

145  Michael Albasini  Orica-GreenEDGE05h 17' 14"+  00:33:20 =27,992  km/h

146  Danilo Hondo  Lampre-ISD05h 17' 14"+  00:33:20 =27,992  km/h

147  Baden Cooke  Orica-GreenEDGE05h 17' 14"+  00:33:20 =27,992  km/h

148  Borut Božič  Astana Pro Team05h 17' 14"+  00:33:20 =27,992  km/h

149  Samuel Dumoulin  Cofidis Le Credit En Ligne05h 17' 14"+  00:33:20 =27,992  km/h

150  Sebastian Langeveld  Orica-GreenEDGE05h 17' 14"+  00:33:20 =27,992  km/h

151  Marcus Burghardt  BMC05h 17' 14"+  00:33:20 =27,992  km/h

157  Yohann Gène  Europcar05h 17' 14"+  00:33:20 =27,992  km/h

152  Bernhard Eisel  Sky Procycling05h 17' 29"+  00:33:35 =27,970  km/h

153  Tom Veelers  Argos–Shimano05h 17' 29"+  00:33:35 =27,970  km/h

154  Mark Cavendish  Sky Procycling05h 17' 29"+  00:33:35 =27,970  km/h

155  Jan Ghyselinck  Cofidis Le Credit En Ligne05h 17' 29"+  00:33:35 =27,970  km/h

156  Bram Tankink  Rabobank05h 17' 29"+  00:33:35 =27,970  km/h

158  Marcel Sieberg  Lotto-Belisol05h 17' 29"+  00:33:35 =27,970  km/h

159  Luis Angel Mate  Cofidis Le Credit En Ligne05h 17' 38"+  00:33:44 =27,957  km/h

160  Bert Grabsch  Omega Pharma – Quick Step05h 18' 02"+  00:34:08 =27,922  km/h

161  Yukiya  Arashiro  Europcar05h 18' 05"+  00:34:11 =27,917  km/h

162  Alessandro Vanotti  Liquigas-Cannondale05h 18' 09"+  00:34:15 =27,911  km/h

163  Yauheni Hutarovich  FDJ – Big Mat05h 18' 09"+  00:34:15 =27,911  km/h

164  Tyler Farrar  Garmin-Sharp-Barracuda05h 18' 20"+  00:34:26 =27,895  km/h

165  Juan José Haedo  Saxo Bank-Tinkoff Bank05h 18' 45"+  00:34:51 =27,859  km/h

166  Aliaksandr Kuchynski  Katusha05h 18' 49"+  00:34:55 =27,853  km/h

167  Kenny van Hummel  Vacansoleil-DCM05h 20' 29"+  00:36:35 =27,708  km/h


Withdrawls: 8
 RiderTeamReason
12   Fabian Cancellara Radioshack–NissanDid not start
121   Lieuwe Westra Vacansoleil-DCMDid not finish
124   Gustav-Erik Larsson Vacansoleil-DCMDid not finish
127   Rob Ruijgh Vacansoleil-DCMDid not finish
153   Bauke Mollema RabobankDid not finish
154   Mark Renshaw RabobankDid not finish
44   Yuriy Krivtsov Lampre-ISDExceeded time limit
47   Alessandro Petacchi Lampre-ISDExceeded time limit
Todays birthdays.

1884 • Vincenzo Borgarello
1889 • Emile Bonnefoi
1889 • Auguste Denizot
1890 • Maurice Petit
1904 • Pierino Ferioli
1905 • Vincent Carrara
1910 • Antoon Van Schendel
1925 • Georges Meunier
1945 • Gérard Besnard
1950 • Wim Kelleners
1960 • Ivan Ivanov
1960 • Pierre-Henri Menthéour
1962 • Giovanni Bottoia
1964 • Flavio Giupponi
1974 • Benoit Salmon
1977 • Iñigo Landaluze
1977 • Svein Tuft
1979 • Rubens Bertogliati
1985 • Matthew Busche

 

Optimized for Chrome - Edge
and Opera browsers.